Utah State University
, Logan
Last Weather Update:12/30/2011 11:00:00 PM
Date
ETo
ETc
Rain
Irrigation
Req
Temp
Max
Temp
Min
Temp
Avg
Avg RH
Avg Wind
Avg Solar
inches
inches
incehs
inches
F
F
F
%
%
watts/m2
11/01/2011 0.04" 0.00" 0.28" -0.22" 46.0° 28.4° 38.1° 65.7% 1.1 MPH 87.5w/m2
11/02/2011 0.05" 0.00" 0.00" 0.00" 45.3° 24.3° 32.9° 54.7% 2.5 MPH 132.7w/m2
11/03/2011 0.06" 0.00" 0.00" 0.00" 49.4° 27.6° 37.6° 47.5% 3.1 MPH 124.0w/m2
11/04/2011 0.09" 0.00" 0.07" -0.06" 59.1° 31.8° 46.6° 40.6% 4.4 MPH 103.3w/m2
11/05/2011 0.02" 0.00" 0.06" -0.05" 34.9° 27.8° 30.6° 80.8% 0.5 MPH 47.3w/m2
11/06/2011 0.04" 0.00" 0.02" -0.02" 40.4° 28.3° 33.6° 67.2% 2.0 MPH 90.3w/m2
11/07/2011 0.02" 0.00" 0.01" -0.01" 40.9° 26.9° 32.8° 79.6% 0.8 MPH 78.1w/m2
11/08/2011 0.04" 0.00" 0.00" 0.00" 39.6° 22.8° 30.2° 65.2% 1.9 MPH 111.3w/m2
11/09/2011 0.05" 0.00" 0.00" 0.00" 42.7° 21.3° 30.1° 57.6% 4.0 MPH 115.5w/m2
11/10/2011 0.05" 0.00" 0.00" 0.00" 47.9° 24.1° 33.7° 46.9% 3.6 MPH 113.1w/m2
11/11/2011 0.05" 0.00" 0.00" 0.00" 46.5° 26.8° 36.0° 42.7% 2.2 MPH 104.8w/m2
11/12/2011 0.01" 0.00" 0.60" -0.48" 47.5° 23.9° 35.2° 76.5% 2.7 MPH 10.2w/m2
11/13/2011 0.02" 0.00" 0.19" -0.15" 43.3° 27.2° 35.5° 77.8% 1.3 MPH 37.6w/m2
11/14/2011 0.05" 0.00" 0.00" 0.00" 49.0° 37.3° 43.5° 35.7% 2.4 MPH 82.8w/m2
11/15/2011 0.04" 0.00" 0.00" 0.00" 45.0° 28.0° 38.8° 44.5% 1.3 MPH 102.4w/m2
11/16/2011 0.04" 0.00" 0.00" 0.00" 41.0° 22.9° 32.4° 52.3% 1.9 MPH 108.3w/m2
11/17/2011 0.05" 0.00" 0.00" 0.00" 52.8° 31.7° 42.9° 41.5% 2.5 MPH 38.2w/m2
11/18/2011 0.03" 0.00" 0.52" -0.42" 53.8° 29.6° 36.6° 79.8% 1.3 MPH 11.5w/m2
11/19/2011 0.03" 0.00" 0.13" -0.10" 34.5° 20.4° 26.7° 79.2% 1.1 MPH 74.2w/m2
11/20/2011 0.01" 0.00" 0.00" 0.00" 27.1° 17.4° 22.1° 85.3% 0.7 MPH 54.5w/m2
11/21/2011 0.02" 0.00" 0.03" -0.02" 37.7° 24.0° 29.9° 93.5% 0.7 MPH 40.0w/m2
11/22/2011 0.03" 0.00" 0.00" 0.00" 43.8° 24.1° 33.8° 85.2% 2.2 MPH 77.3w/m2
11/23/2011 0.05" 0.00" 0.00" 0.00" 45.4° 31.8° 38.8° 59.9% 5.9 MPH 98.0w/m2
11/24/2011 0.05" 0.00" 0.00" 0.00" 55.2° 37.4° 43.8° 48.3% 3.8 MPH 69.1w/m2
11/25/2011 0.03" 0.00" 0.00" 0.00" 46.5° 25.1° 37.3° 56.6% 1.6 MPH 54.3w/m2
11/26/2011 0.04" 0.00" 0.00" 0.00" 36.6° 20.7° 27.9° 54.5% 3.4 MPH 94.3w/m2
11/27/2011 0.04" 0.00" 0.00" 0.00" 40.0° 22.9° 30.9° 51.7% 3.1 MPH 92.8w/m2
11/28/2011 0.03" 0.00" 0.00" 0.00" 41.4° 27.2° 33.8° 66.8% 1.5 MPH 60.8w/m2
11/29/2011 0.04" 0.00" 0.00" 0.00" 44.9° 29.6° 36.0° 66.9% 2.1 MPH 87.4w/m2
11/30/2011 0.01" 0.00" 0.00" 0.00" 39.7° 27.9° 33.5° 77.7% 1.1 MPH 24.4w/m2
Totals: 1.12" 0.00" 1.91" -1.53" 59.1° 17.4° 34.7° 62.7% 2.2 MPH 77.5w/m2